Overview Statistics Trail Chart Weather Telemetry Raw packets
 

This is the latest recevied weather packets stored in our database for station/object OE5MMP-13. If no packets are shown the sender has not sent any weather packets the latest 10 day(s).

<< 12 13 14 15 16 17 18 >>
Time Temp. Humidity Pressure Rain* Wind** Luminosity Snow
1788480794 20° C 63% 1022.4 hPa 0 mm - 0 W/m² -
1788480194 20° C 63% 1022.5 hPa 0 mm - 0 W/m² -
1788479594 20° C 64% 1022.5 hPa 0 mm - 0 W/m² -
1788478995 19.44° C 64% 1022.4 hPa 0 mm - 0 W/m² -
1788478394 19.44° C 65% 1022.4 hPa 0 mm - 0 W/m² -
1788477795 18.33° C 68% 1022.3 hPa 0 mm - 0 W/m² -
1788477194 17.78° C 70% 1022.4 hPa 0 mm - 0 W/m² -
1788476601 17.78° C 72% 1022.5 hPa 0 mm - 0 W/m² -
1788475994 17.78° C 74% 1022.4 hPa 0 mm - 0 W/m² -
1788475394 17.78° C 74% 1022.4 hPa 0 mm - 0 W/m² -
1788474794 17.78° C 74% 1022.7 hPa 0 mm - 0 W/m² -
1788474194 17.78° C 74% 1022.7 hPa 0 mm - 0 W/m² -
1788473594 17.78° C 74% 1022.6 hPa 0 mm - 0 W/m² -
1788472994 17.78° C 73% 1022.7 hPa 0 mm - 0 W/m² -
1788472394 17.78° C 73% 1022.8 hPa 0 mm - 0 W/m² -
1788471813 17.78° C 74% 1022.7 hPa 0 mm - 0 W/m² -
1788471194 17.78° C 73% 1022.5 hPa 0 mm - 0 W/m² -
1788470593 17.78° C 74% 1022.6 hPa 0 mm - 0 W/m² -
1788469994 18.33° C 74% 1022.6 hPa 0 mm - 0 W/m² -
1788469394 18.33° C 72% 1022.5 hPa 0 mm - 0 W/m² -
1788468794 18.89° C 71% 1022.8 hPa 0 mm - 0 W/m² -
1788468194 18.89° C 68% 1022.7 hPa 0 mm - 0 W/m² -
1788467594 19.44° C 67% 1022.6 hPa 0 mm - 0 W/m² -
1788466994 19.44° C 66% 1022.5 hPa 0 mm - 0 W/m² -
1788466394 19.44° C 65% 1022.5 hPa 0 mm - 0 W/m² -

* Rain latest hour (hover to see other rain measurements)
** Current wind speed in m/s (hover to see current wind gust speed)